Time;durP1;ratioP1;P1;durP2;ratioP2;P2;SDS_P1;SDS_P2;PMS_P1;PMS_P2;Temp;Humidity;BMP_temperature;BMP_pressure;BME280_temperature;BME280_humidity;BME280_pressure;Samples;Min_cycle;Max_cycle;Signal;HPM_P1;HPM_P2
2022/04/20 00:23:03;;;;;;;9.02;7.55;;;;;;;;;;4199993;34;20620;-60
2022/04/20 00:25:29;;;;;;;8.48;7.65;;;;;;;;;;4191418;34;20118;-60
2022/04/20 00:27:55;;;;;;;9.18;8.20;;;;;;;;;;4191060;34;20108;-59
2022/04/20 00:30:21;;;;;;;9.05;7.60;;;;;;;;;;4179581;34;20118;-59
2022/04/20 00:32:47;;;;;;;8.52;7.72;;;;;;;;;;4177678;34;20210;-60
2022/04/20 00:35:13;;;;;;;9.13;8.23;;;;;;;;;;4177583;34;20130;-60
2022/04/20 00:37:41;;;;;;;8.15;7.35;;;;;;;;;;4182687;34;20522;-60
2022/04/20 00:40:08;;;;;;;8.48;7.68;;;;;;;;;;4191334;34;20614;-61
2022/04/20 00:42:36;;;;;;;8.82;8.02;;;;;;;;;;4191153;34;20109;-61
2022/04/20 00:45:02;;;;;;;8.80;8.00;;;;;;;;;;4190106;34;20129;-61
2022/04/20 00:47:29;;;;;;;9.43;7.68;;;;;;;;;;4191393;34;20193;-61
2022/04/20 00:49:57;;;;;;;7.97;6.82;;;;;;;;;;4191257;34;20525;-61
2022/04/20 00:52:22;;;;;;;9.48;7.85;;;;;;;;;;4190978;34;20533;-62
2022/04/20 00:54:48;;;;;;;9.68;7.10;;;;;;;;;;4191206;34;20210;-61
2022/04/20 00:57:15;;;;;;;12.75;7.45;;;;;;;;;;4191093;34;20237;-60
2022/04/20 00:59:41;;;;;;;7.82;6.80;;;;;;;;;;4191107;34;20545;-59
2022/04/20 01:02:07;;;;;;;10.75;7.00;;;;;;;;;;4189686;34;20133;-59
2022/04/20 01:04:33;;;;;;;9.15;7.95;;;;;;;;;;4189810;34;20157;-60
2022/04/20 01:07:00;;;;;;;9.57;7.80;;;;;;;;;;4191065;34;20535;-60
2022/04/20 01:09:27;;;;;;;8.60;7.70;;;;;;;;;;4191086;34;20097;-60
2022/04/20 01:11:54;;;;;;;9.02;7.55;;;;;;;;;;4189651;34;20094;-60
2022/04/20 01:14:20;;;;;;;9.00;8.10;;;;;;;;;;4189587;34;20200;-59
2022/04/20 01:16:47;;;;;;;8.82;7.78;;;;;;;;;;4191239;34;20109;-59
2022/04/20 01:19:14;;;;;;;8.43;7.55;;;;;;;;;;4190932;34;20098;-59
2022/04/20 01:21:40;;;;;;;10.93;7.07;;;;;;;;;;4200980;34;20110;-59
2022/04/20 01:24:06;;;;;;;9.20;7.90;;;;;;;;;;4190797;34;20546;-59
2022/04/20 01:26:33;;;;;;;9.93;7.78;;;;;;;;;;4190546;34;20106;-59
2022/04/20 01:29:01;;;;;;;14.68;9.60;;;;;;;;;;4189402;34;20197;-59
2022/04/20 01:31:29;;;;;;;12.52;10.32;;;;;;;;;;4200926;34;20193;-59
2022/04/20 01:33:55;;;;;;;14.68;10.75;;;;;;;;;;4191043;34;20207;-60
2022/04/20 01:36:21;;;;;;;12.32;10.35;;;;;;;;;;4190858;34;20110;-60
2022/04/20 01:38:47;;;;;;;11.48;9.48;;;;;;;;;;4178085;34;20115;-60
2022/04/20 01:41:14;;;;;;;11.25;9.90;;;;;;;;;;4190860;34;20121;-60
2022/04/20 01:43:40;;;;;;;14.05;9.93;;;;;;;;;;4190658;34;20193;-59
2022/04/20 01:46:06;;;;;;;14.13;9.27;;;;;;;;;;4190687;34;20114;-60
2022/04/20 01:48:32;;;;;;;13.32;9.10;;;;;;;;;;4189271;34;20133;-60
2022/04/20 01:53:42;;;;;;;14.93;10.95;;;;;;;;;;4190560;34;20547;-60
2022/04/20 01:56:08;;;;;;;19.27;10.85;;;;;;;;;;4190925;34;20218;-58
2022/04/20 01:58:35;;;;;;;14.68;11.23;;;;;;;;;;4190433;34;20590;-60
2022/04/20 02:02:34;;;;;;;14.65;10.63;;;;;;;;;;4190549;34;20125;-60
2022/04/20 02:03:47;;;;;;;14.68;10.65;;;;;;;;;;4199368;34;20478;-60
2022/04/20 02:06:14;;;;;;;10.68;8.60;;;;;;;;;;4190599;34;20114;-62
2022/04/20 02:08:41;;;;;;;10.88;8.90;;;;;;;;;;4190445;34;20117;-59
2022/04/20 02:11:07;;;;;;;11.55;8.38;;;;;;;;;;4189172;34;20114;-59
2022/04/20 02:13:33;;;;;;;11.18;9.55;;;;;;;;;;4190541;34;20434;-59
2022/04/20 02:15:59;;;;;;;13.62;10.48;;;;;;;;;;4190607;34;20126;-59
2022/04/20 02:18:25;;;;;;;14.73;11.80;;;;;;;;;;4189023;34;20147;-59
2022/04/20 02:20:52;;;;;;;15.77;11.95;;;;;;;;;;4190378;34;20479;-59
2022/04/20 02:23:18;;;;;;;17.55;12.57;;;;;;;;;;4200282;34;20114;-59
2022/04/20 02:25:45;;;;;;;20.80;12.95;;;;;;;;;;4190232;34;20114;-59
2022/04/20 02:28:11;;;;;;;16.45;12.27;;;;;;;;;;4190236;34;20114;-59
2022/04/20 02:30:37;;;;;;;14.30;11.20;;;;;;;;;;4190495;34;20114;-59
2022/04/20 02:33:03;;;;;;;13.38;10.23;;;;;;;;;;4190195;34;20209;-59
2022/04/20 02:35:30;;;;;;;13.75;11.50;;;;;;;;;;4190373;34;20514;-60
2022/04/20 02:37:56;;;;;;;15.35;11.35;;;;;;;;;;4177400;34;20118;-60
2022/04/20 02:40:22;;;;;;;23.58;11.93;;;;;;;;;;4191969;34;20111;-60
2022/04/20 02:42:48;;;;;;;18.02;12.05;;;;;;;;;;4192380;34;20549;-60
2022/04/20 02:45:16;;;;;;;14.85;11.70;;;;;;;;;;4192321;34;20189;-60
2022/04/20 02:47:43;;;;;;;13.13;10.50;;;;;;;;;;4202017;34;20134;-59
2022/04/20 02:50:09;;;;;;;14.07;12.25;;;;;;;;;;4192194;34;20136;-60
2022/04/20 02:52:35;;;;;;;15.15;11.00;;;;;;;;;;4192020;34;20094;-60
2022/04/20 02:55:01;;;;;;;18.27;12.18;;;;;;;;;;4192154;34;20110;-60
2022/04/20 02:57:27;;;;;;;12.50;11.20;;;;;;;;;;4191971;34;20544;-60
2022/04/20 02:59:53;;;;;;;12.27;10.40;;;;;;;;;;4192254;34;20542;-59
2022/04/20 03:02:19;;;;;;;12.82;10.50;;;;;;;;;;4190889;34;20102;-60
2022/04/20 03:04:45;;;;;;;12.52;10.18;;;;;;;;;;4190714;34;20245;-59
2022/04/20 03:07:11;;;;;;;15.77;10.90;;;;;;;;;;4202340;34;20145;-59
2022/04/20 03:09:36;;;;;;;14.25;11.12;;;;;;;;;;4191930;34;20098;-60
2022/04/20 03:12:03;;;;;;;13.32;11.10;;;;;;;;;;4192087;34;20585;-60
2022/04/20 03:14:29;;;;;;;14.23;11.98;;;;;;;;;;4191962;34;20109;-59
2022/04/20 03:16:54;;;;;;;19.40;12.20;;;;;;;;;;4191834;34;20507;-59
2022/04/20 03:19:20;;;;;;;18.83;12.02;;;;;;;;;;4201944;34;20198;-59
2022/04/20 03:21:47;;;;;;;21.17;12.35;;;;;;;;;;4192220;34;20477;-59
2022/04/20 03:24:14;;;;;;;11.32;10.13;;;;;;;;;;4185462;34;20081;-59
2022/04/20 03:26:40;;;;;;;18.40;11.25;;;;;;;;;;4185219;34;20230;-59
2022/04/20 03:29:06;;;;;;;14.18;10.70;;;;;;;;;;4182259;34;20090;-59
2022/04/20 03:31:34;;;;;;;12.65;10.20;;;;;;;;;;4187132;34;20114;-60
2022/04/20 03:34:01;;;;;;;15.45;11.27;;;;;;;;;;4180107;34;20099;-60
2022/04/20 03:36:27;;;;;;;15.10;10.70;;;;;;;;;;4188401;34;20137;-61
2022/04/20 03:38:53;;;;;;;17.55;11.80;;;;;;;;;;4188002;34;20122;-61
2022/04/20 03:41:22;;;;;;;18.48;14.05;;;;;;;;;;4177976;34;20125;-61
2022/04/20 03:43:49;;;;;;;22.02;13.93;;;;;;;;;;4187823;34;20098;-59
2022/04/20 03:46:15;;;;;;;21.62;13.25;;;;;;;;;;4178132;34;20433;-59
2022/04/20 03:48:41;;;;;;;17.67;13.70;;;;;;;;;;4177818;34;20115;-59
2022/04/20 03:51:07;;;;;;;17.17;13.75;;;;;;;;;;4183682;34;20094;-61
2022/04/20 03:53:33;;;;;;;39.90;15.45;;;;;;;;;;4201618;34;20126;-60
2022/04/20 03:55:59;;;;;;;20.55;14.45;;;;;;;;;;4190382;34;20590;-59
2022/04/20 03:58:25;;;;;;;18.85;13.93;;;;;;;;;;4191621;34;20122;-61
2022/04/20 04:00:51;;;;;;;19.25;12.43;;;;;;;;;;4191580;34;20114;-64
2022/04/20 04:03:18;;;;;;;24.87;12.80;;;;;;;;;;4191568;34;20090;-60
2022/04/20 04:05:44;;;;;;;21.25;13.52;;;;;;;;;;4191453;34;20122;-60
2022/04/20 04:08:10;;;;;;;17.87;12.50;;;;;;;;;;4201629;34;20164;-58
2022/04/20 04:10:36;;;;;;;16.62;12.95;;;;;;;;;;4191445;34;20122;-58
2022/04/20 04:13:02;;;;;;;17.23;13.75;;;;;;;;;;4191465;34;20130;-58
2022/04/20 04:15:28;;;;;;;14.90;13.30;;;;;;;;;;4191353;34;20458;-59
2022/04/20 04:17:58;;;;;;;15.73;12.37;;;;;;;;;;4191459;34;20126;-58
2022/04/20 04:20:26;;;;;;;19.42;12.18;;;;;;;;;;4189721;34;20118;-58
2022/04/20 04:22:52;;;;;;;14.77;12.45;;;;;;;;;;4191049;34;20137;-57
2022/04/20 04:25:18;;;;;;;17.33;13.30;;;;;;;;;;4190857;34;20118;-55
2022/04/20 04:27:45;;;;;;;21.60;12.52;;;;;;;;;;4190281;34;20125;-58
2022/04/20 04:30:11;;;;;;;16.30;12.80;;;;;;;;;;4191387;34;20126;-58
2022/04/20 04:32:37;;;;;;;19.27;13.80;;;;;;;;;;4191507;34;20191;-59
2022/04/20 04:35:03;;;;;;;24.48;14.07;;;;;;;;;;4191241;34;20118;-58
2022/04/20 04:37:29;;;;;;;33.20;14.35;;;;;;;;;;4191253;34;20122;-58
2022/04/20 04:39:56;;;;;;;19.95;13.57;;;;;;;;;;4191244;34;20133;-58
2022/04/20 04:42:22;;;;;;;18.45;12.02;;;;;;;;;;4191138;34;20514;-58
2022/04/20 04:44:48;;;;;;;20.17;12.93;;;;;;;;;;4191231;34;20114;-58
2022/04/20 04:49:59;;;;;;;27.20;12.13;;;;;;;;;;4191123;34;20094;-57
2022/04/20 04:52:25;;;;;;;22.35;12.50;;;;;;;;;;4189714;34;20114;-58
2022/04/20 04:54:51;;;;;;;27.08;13.27;;;;;;;;;;4189644;34;20114;-58
2022/04/20 04:57:17;;;;;;;21.52;13.35;;;;;;;;;;4189869;34;20457;-57
2022/04/20 04:59:43;;;;;;;19.35;13.02;;;;;;;;;;4190995;34;20114;-58
2022/04/20 05:02:10;;;;;;;25.67;14.45;;;;;;;;;;4190300;34;20121;-58
2022/04/20 05:04:37;;;;;;;20.35;11.93;;;;;;;;;;4191152;34;20443;-58
2022/04/20 05:07:04;;;;;;;27.20;13.27;;;;;;;;;;4201283;34;20113;-57
2022/04/20 05:09:30;;;;;;;28.38;12.77;;;;;;;;;;4191153;34;20194;-58
2022/04/20 05:11:56;;;;;;;22.85;11.88;;;;;;;;;;4178279;34;20099;-58
2022/04/20 05:14:22;;;;;;;21.00;13.02;;;;;;;;;;4190898;34;20217;-56
2022/04/20 05:16:49;;;;;;;20.62;13.75;;;;;;;;;;4190951;34;20137;-58
2022/04/20 05:19:15;;;;;;;27.30;13.57;;;;;;;;;;4200974;34;20102;-58
2022/04/20 05:21:41;;;;;;;19.67;13.68;;;;;;;;;;4189720;34;20632;-58
2022/04/20 05:24:07;;;;;;;24.70;15.40;;;;;;;;;;4190813;34;20105;-58
2022/04/20 05:26:33;;;;;;;27.90;14.80;;;;;;;;;;4191239;34;20098;-59
2022/04/20 05:28:59;;;;;;;23.73;14.50;;;;;;;;;;4190823;34;20118;-58
2022/04/20 05:31:25;;;;;;;25.55;15.73;;;;;;;;;;4190647;34;20210;-58
2022/04/20 05:33:51;;;;;;;28.05;18.58;;;;;;;;;;4190862;34;20598;-58
2022/04/20 05:36:18;;;;;;;21.83;16.35;;;;;;;;;;4190921;34;20109;-58
2022/04/20 05:41:40;;;;;;;18.05;14.60;;;;;;;;;;4190685;34;20134;-57
2022/04/20 05:44:08;;;;;;;19.85;12.30;;;;;;;;;;4190788;34;20118;-59
2022/04/20 05:46:34;;;;;;;17.48;12.90;;;;;;;;;;4190710;34;20132;-58
2022/04/20 05:49:01;;;;;;;21.05;14.95;;;;;;;;;;4190350;34;20113;-58
2022/04/20 05:51:27;;;;;;;20.85;16.05;;;;;;;;;;4190593;34;20118;-59
2022/04/20 05:53:53;;;;;;;16.58;12.57;;;;;;;;;;4190944;34;20090;-58
2022/04/20 05:56:19;;;;;;;17.67;12.55;;;;;;;;;;4190699;34;20455;-59
2022/04/20 05:58:47;;;;;;;18.52;13.60;;;;;;;;;;4201016;34;20125;-60
2022/04/20 06:01:14;;;;;;;20.48;10.60;;;;;;;;;;4190683;34;20534;-62
2022/04/20 06:03:40;;;;;;;11.77;8.25;;;;;;;;;;4189342;34;20630;-57
2022/04/20 06:06:06;;;;;;;13.68;8.85;;;;;;;;;;4177585;34;20109;-57
2022/04/20 06:08:32;;;;;;;11.18;8.95;;;;;;;;;;4190585;34;20192;-59
2022/04/20 06:10:59;;;;;;;14.23;9.27;;;;;;;;;;4190708;34;20102;-59
2022/04/20 06:13:25;;;;;;;14.55;10.15;;;;;;;;;;4190600;34;20886;-59
2022/04/20 06:15:52;;;;;;;12.43;10.27;;;;;;;;;;4190552;34;20205;-59
2022/04/20 06:18:18;;;;;;;11.90;9.07;;;;;;;;;;4190607;34;20098;-59
2022/04/20 06:20:44;;;;;;;11.90;9.23;;;;;;;;;;4190291;34;20180;-59
2022/04/20 06:23:10;;;;;;;18.02;11.57;;;;;;;;;;4190283;34;20730;-59
2022/04/20 06:25:36;;;;;;;14.35;11.98;;;;;;;;;;4190441;34;20145;-59
2022/04/20 06:28:02;;;;;;;16.10;14.25;;;;;;;;;;4190611;34;20145;-59
2022/04/20 06:30:29;;;;;;;14.27;11.70;;;;;;;;;;4190026;34;20138;-59
2022/04/20 06:32:54;;;;;;;11.43;9.32;;;;;;;;;;4190266;34;20209;-59
2022/04/20 06:35:20;;;;;;;12.57;9.80;;;;;;;;;;4190225;34;20224;-59
2022/04/20 06:37:48;;;;;;;11.35;9.27;;;;;;;;;;4189229;34;20201;-59
2022/04/20 06:40:14;;;;;;;15.88;10.20;;;;;;;;;;4190098;34;20129;-57
2022/04/20 06:42:41;;;;;;;12.40;9.57;;;;;;;;;;4190165;34;20134;-57
2022/04/20 06:45:07;;;;;;;13.30;10.32;;;;;;;;;;4190089;34;20487;-61
2022/04/20 06:47:34;;;;;;;13.35;9.82;;;;;;;;;;4188609;34;20204;-61
2022/04/20 06:50:00;;;;;;;12.85;9.52;;;;;;;;;;4188553;34;20117;-62
2022/04/20 07:00:39;;;;;;;8.63;7.72;;;;;;;;;;4175892;34;20223;-60
2022/04/20 07:03:06;;;;;;;9.05;7.80;;;;;;;;;;4174928;34;20118;-60
2022/04/20 07:05:33;;;;;;;9.80;8.93;;;;;;;;;;4176077;34;20134;-61
2022/04/20 07:08:03;;;;;;;8.70;7.78;;;;;;;;;;4175943;34;20131;-59
2022/04/20 07:10:30;;;;;;;12.05;9.63;;;;;;;;;;4176078;34;20510;-61
2022/04/20 07:12:56;;;;;;;11.32;10.13;;;;;;;;;;4175126;34;20081;-59
2022/04/20 07:15:22;;;;;;;12.50;10.20;;;;;;;;;;4176082;34;20125;-59
2022/04/20 07:17:48;;;;;;;12.07;10.15;;;;;;;;;;4186055;34;20130;-58
2022/04/20 07:20:17;;;;;;;14.40;10.02;;;;;;;;;;4178209;34;20113;-58
2022/04/20 07:22:47;;;;;;;11.70;10.05;;;;;;;;;;4188996;34;20118;-57
2022/04/20 07:25:13;;;;;;;11.93;10.63;;;;;;;;;;4190164;34;20098;-58
2022/04/20 07:27:39;;;;;;;11.18;9.98;;;;;;;;;;4192031;34;20097;-57
2022/04/20 07:30:05;;;;;;;11.38;10.18;;;;;;;;;;4191971;34;20501;-57
2022/04/20 07:32:31;;;;;;;13.98;11.57;;;;;;;;;;4191979;34;20204;-57
2022/04/20 07:34:57;;;;;;;14.82;12.73;;;;;;;;;;4192074;34;20209;-57
2022/04/20 07:37:23;;;;;;;13.55;11.88;;;;;;;;;;4192025;34;20098;-57
2022/04/20 07:39:49;;;;;;;12.88;11.57;;;;;;;;;;4192015;34;20133;-58
2022/04/20 07:42:15;;;;;;;10.98;9.88;;;;;;;;;;4192034;34;20114;-58
2022/04/20 07:44:41;;;;;;;11.20;9.55;;;;;;;;;;4191709;34;20123;-57
2022/04/20 07:47:07;;;;;;;10.80;9.70;;;;;;;;;;4191649;34;20106;-58
2022/04/20 07:52:21;;;;;;;13.38;9.80;;;;;;;;;;4191616;34;20553;-58
2022/04/20 07:54:47;;;;;;;11.65;9.65;;;;;;;;;;4191932;34;20113;-58
2022/04/20 07:57:15;;;;;;;18.27;12.95;;;;;;;;;;4191556;34;20128;-58
2022/04/20 07:59:44;;;;;;;17.85;13.85;;;;;;;;;;4191591;34;20606;-59
2022/04/20 08:02:10;;;;;;;27.83;17.02;;;;;;;;;;4191512;34;20146;-58
2022/04/20 08:04:36;;;;;;;29.73;19.92;;;;;;;;;;4191721;34;20118;-58
2022/04/20 08:07:02;;;;;;;20.40;16.35;;;;;;;;;;4191496;34;20201;-61
2022/04/20 08:09:29;;;;;;;25.42;16.62;;;;;;;;;;4191807;34;20125;-58
2022/04/20 08:11:55;;;;;;;23.00;16.20;;;;;;;;;;4191304;34;20122;-60
2022/04/20 08:14:21;;;;;;;18.12;13.32;;;;;;;;;;4191508;34;20122;-58
2022/04/20 08:16:48;;;;;;;15.77;12.82;;;;;;;;;;4191621;34;20120;-60
2022/04/20 08:19:14;;;;;;;12.20;10.70;;;;;;;;;;4191499;34;20178;-60
2022/04/20 08:21:40;;;;;;;13.60;11.12;;;;;;;;;;4191316;34;20128;-58
2022/04/20 08:24:06;;;;;;;13.10;10.43;;;;;;;;;;4191373;34;20213;-58
2022/04/20 08:26:32;;;;;;;11.88;10.57;;;;;;;;;;4191450;34;20121;-58
2022/04/20 08:28:58;;;;;;;12.73;10.73;;;;;;;;;;4191672;34;20573;-60
2022/04/20 08:31:24;;;;;;;14.40;11.27;;;;;;;;;;4191148;34;20224;-60
2022/04/20 08:33:51;;;;;;;13.65;11.43;;;;;;;;;;4189912;34;20129;-60
2022/04/20 08:36:17;;;;;;;15.45;12.20;;;;;;;;;;4189727;34;20128;-58
2022/04/20 08:38:44;;;;;;;17.33;11.55;;;;;;;;;;4191206;34;20185;-59
2022/04/20 08:41:15;;;;;;;14.13;12.50;;;;;;;;;;4191312;34;20140;-59
2022/04/20 08:43:41;;;;;;;15.57;12.27;;;;;;;;;;4189841;34;20205;-58
2022/04/20 08:46:10;;;;;;;14.02;10.70;;;;;;;;;;4191263;34;20129;-62
2022/04/20 08:48:37;;;;;;;17.00;12.77;;;;;;;;;;4191117;34;20432;-59
2022/04/20 08:51:04;;;;;;;15.40;13.80;;;;;;;;;;4191482;34;20125;-59
2022/04/20 08:53:30;;;;;;;19.40;13.88;;;;;;;;;;4191069;34;20105;-58
2022/04/20 08:58:43;;;;;;;17.30;14.40;;;;;;;;;;4191283;34;20110;-59
2022/04/20 09:01:12;;;;;;;16.70;12.02;;;;;;;;;;4191125;34;20105;-58
2022/04/20 09:03:38;;;;;;;16.73;12.35;;;;;;;;;;4191075;34;20491;-61
2022/04/20 09:06:05;;;;;;;18.10;14.00;;;;;;;;;;4184837;34;20138;-59
2022/04/20 09:08:33;;;;;;;15.50;13.80;;;;;;;;;;4167577;34;20521;-59
2022/04/20 09:11:00;;;;;;;16.15;14.45;;;;;;;;;;4212741;34;20101;-59
2022/04/20 09:13:35;;;;;;;17.08;14.85;;;;;;;;;;4183959;34;20600;-58
2022/04/20 09:16:21;;;;;;;18.25;16.27;;;;;;;;;;4177248;34;20130;-59
2022/04/20 09:18:50;;;;;;;18.58;15.93;;;;;;;;;;4177158;34;20216;-59
2022/04/20 09:21:16;;;;;;;19.20;15.50;;;;;;;;;;4179647;34;20121;-60
2022/04/20 09:23:42;;;;;;;14.00;12.45;;;;;;;;;;4190802;34;20114;-60
2022/04/20 09:26:11;;;;;;;16.42;11.95;;;;;;;;;;4191008;34;20145;-59
2022/04/20 09:28:42;;;;;;;13.82;11.82;;;;;;;;;;4189711;34;20525;-59
2022/04/20 09:31:10;;;;;;;16.30;12.50;;;;;;;;;;4189392;34;20266;-58
2022/04/20 09:33:42;;;;;;;15.43;12.50;;;;;;;;;;4190732;34;20201;-58
2022/04/20 09:36:09;;;;;;;16.75;13.13;;;;;;;;;;4190594;34;20126;-59
2022/04/20 09:38:39;;;;;;;14.75;12.25;;;;;;;;;;4186738;34;20099;-59
2022/04/20 09:41:07;;;;;;;18.12;13.85;;;;;;;;;;4176961;34;20122;-60
2022/04/20 09:43:33;;;;;;;19.52;15.32;;;;;;;;;;4178994;34;20542;-58
2022/04/20 09:49:12;;;;;;;17.90;14.20;;;;;;;;;;4178407;34;20211;-59
2022/04/20 09:51:40;;;;;;;14.87;13.30;;;;;;;;;;4178466;34;20106;-59
2022/04/20 09:54:26;;;;;;;13.50;12.07;;;;;;;;;;4190626;34;20109;-59
2022/04/20 09:57:12;;;;;;;14.07;9.90;;;;;;;;;;4190431;34;20129;-59
2022/04/20 09:59:59;;;;;;;13.32;10.90;;;;;;;;;;4190669;34;20293;-58
2022/04/20 10:02:28;;;;;;;14.13;11.35;;;;;;;;;;4164167;34;20091;-62
2022/04/20 10:04:55;;;;;;;19.95;10.60;;;;;;;;;;4176821;34;20198;-61
2022/04/20 10:07:21;;;;;;;14.68;11.45;;;;;;;;;;4186713;34;20219;-59
2022/04/20 10:09:47;;;;;;;14.25;10.38;;;;;;;;;;4176727;34;20126;-59
2022/04/20 10:12:15;;;;;;;12.90;9.95;;;;;;;;;;4186897;34;20155;-59
2022/04/20 10:17:30;;;;;;;10.88;8.88;;;;;;;;;;4178928;34;20439;-60
2022/04/20 10:19:57;;;;;;;10.65;9.23;;;;;;;;;;4188854;34;20120;-58
2022/04/20 10:22:27;;;;;;;12.23;9.50;;;;;;;;;;4190305;34;20193;-59
2022/04/20 10:24:56;;;;;;;9.70;8.45;;;;;;;;;;4177254;34;20102;-59
2022/04/20 10:27:28;;;;;;;12.43;9.70;;;;;;;;;;4190197;34;20194;-59
2022/04/20 10:30:03;;;;;;;14.85;9.45;;;;;;;;;;4200238;34;20118;-59
2022/04/20 10:32:40;;;;;;;13.88;9.52;;;;;;;;;;4190104;34;20521;-60
2022/04/20 10:35:07;;;;;;;13.27;9.85;;;;;;;;;;4188834;34;20126;-58
2022/04/20 10:37:33;;;;;;;13.00;10.43;;;;;;;;;;4190401;34;20118;-58
2022/04/20 10:40:18;;;;;;;10.88;9.30;;;;;;;;;;4177288;34;20142;-58
2022/04/20 10:42:44;;;;;;;12.82;9.43;;;;;;;;;;4190080;34;20672;-59
2022/04/20 10:45:12;;;;;;;11.98;9.70;;;;;;;;;;4188504;34;20178;-58
2022/04/20 10:47:42;;;;;;;12.63;9.65;;;;;;;;;;4190091;34;20136;-59
2022/04/20 10:50:19;;;;;;;13.52;11.27;;;;;;;;;;4190062;34;20112;-60
2022/04/20 10:52:48;;;;;;;13.20;9.07;;;;;;;;;;4189863;34;20217;-60
2022/04/20 10:55:15;;;;;;;14.30;8.77;;;;;;;;;;4175950;34;20102;-60
2022/04/20 10:57:42;;;;;;;16.17;10.07;;;;;;;;;;4188796;34;20099;-60
2022/04/20 11:00:20;;;;;;;14.82;11.80;;;;;;;;;;4189425;34;20218;-60
2022/04/20 11:02:50;;;;;;;18.55;11.52;;;;;;;;;;4190841;34;20109;-59
2022/04/20 11:05:20;;;;;;;16.12;9.68;;;;;;;;;;4192221;34;20122;-60
2022/04/20 11:08:05;;;;;;;16.95;9.55;;;;;;;;;;4192045;34;20118;-59
2022/04/20 11:10:34;;;;;;;12.82;8.98;;;;;;;;;;4191907;34;20206;-60
2022/04/20 11:19:22;;;;;;;;;;;;;;;;;;4191070;34;20106;-60
2022/04/20 11:22:00;;;;;;;14.50;10.40;;;;;;;;;;4182718;34;20375;-60
2022/04/20 11:24:28;;;;;;;11.85;9.35;;;;;;;;;;4192068;34;20087;-60
2022/04/20 11:26:55;;;;;;;11.50;9.30;;;;;;;;;;4191667;34;20609;-58
2022/04/20 11:29:28;;;;;;;16.60;9.88;;;;;;;;;;4167784;34;20149;-60
2022/04/20 11:31:58;;;;;;;15.32;10.15;;;;;;;;;;4178933;34;20122;-60
2022/04/20 11:34:26;;;;;;;12.63;9.73;;;;;;;;;;4192050;34;20113;-60
2022/04/20 11:36:58;;;;;;;12.43;9.82;;;;;;;;;;4191745;34;20190;-59
2022/04/20 11:39:25;;;;;;;12.13;9.05;;;;;;;;;;4192070;34;20116;-59
2022/04/20 11:41:56;;;;;;;12.10;9.70;;;;;;;;;;4190422;34;20523;-59
2022/04/20 11:44:26;;;;;;;11.93;10.63;;;;;;;;;;4191695;34;20110;-59
2022/04/20 11:46:54;;;;;;;12.05;9.10;;;;;;;;;;4191904;34;20114;-59
2022/04/20 11:49:20;;;;;;;13.52;9.95;;;;;;;;;;4178876;34;20086;-57
2022/04/20 11:51:57;;;;;;;12.02;10.30;;;;;;;;;;4191807;34;20118;-58
2022/04/20 11:54:25;;;;;;;12.45;9.82;;;;;;;;;;4191623;34;20528;-59
2022/04/20 11:56:51;;;;;;;10.45;8.93;;;;;;;;;;4179205;34;20209;-59
2022/04/20 11:59:21;;;;;;;11.52;10.18;;;;;;;;;;4191588;34;20142;-59
2022/04/20 12:01:47;;;;;;;12.90;10.25;;;;;;;;;;4191710;34;20091;-59
2022/04/20 12:04:18;;;;;;;10.20;8.27;;;;;;;;;;4191847;34;20086;-59
2022/04/20 12:06:46;;;;;;;15.23;9.27;;;;;;;;;;4191576;34;20129;-61
2022/04/20 12:09:13;;;;;;;11.48;9.15;;;;;;;;;;4186925;34;20130;-59
2022/04/20 12:11:40;;;;;;;10.43;8.80;;;;;;;;;;4177916;34;20117;-59
2022/04/20 12:14:07;;;;;;;10.75;9.45;;;;;;;;;;4177695;34;20194;-60
2022/04/20 12:16:35;;;;;;;9.43;8.18;;;;;;;;;;4177728;34;20129;-59
2022/04/20 12:19:02;;;;;;;11.07;8.65;;;;;;;;;;4182025;34;20113;-59
2022/04/20 12:21:47;;;;;;;11.68;8.43;;;;;;;;;;4190491;34;20458;-59
2022/04/20 12:24:24;;;;;;;13.00;8.77;;;;;;;;;;4191325;34;20196;-59
2022/04/20 12:26:51;;;;;;;10.65;7.75;;;;;;;;;;4191509;34;20102;-59
2022/04/20 12:29:26;;;;;;;11.12;7.82;;;;;;;;;;4191385;34;20121;-59
2022/04/20 12:31:56;;;;;;;12.55;8.45;;;;;;;;;;4191406;34;20142;-59
2022/04/20 12:34:25;;;;;;;8.98;5.82;;;;;;;;;;4191431;34;20126;-65
2022/04/20 12:36:55;;;;;;;9.98;7.40;;;;;;;;;;4191455;34;20113;-64
2022/04/20 12:39:38;;;;;;;10.05;8.13;;;;;;;;;;4191178;34;20121;-64
2022/04/20 12:42:12;;;;;;;11.48;8.82;;;;;;;;;;4185138;34;20114;-64
2022/04/20 12:44:47;;;;;;;12.10;9.63;;;;;;;;;;4202714;34;20113;-64
2022/04/20 12:47:14;;;;;;;10.80;8.60;;;;;;;;;;4177421;34;20102;-63
2022/04/20 12:49:53;;;;;;;8.70;7.65;;;;;;;;;;4178438;34;20572;-64
2022/04/20 12:52:22;;;;;;;12.05;8.27;;;;;;;;;;4190346;34;20121;-63
2022/04/20 12:55:08;;;;;;;13.50;7.15;;;;;;;;;;4190601;34;20209;-64
2022/04/20 13:03:12;;;;;;;8.02;6.97;;;;;;;;;;4191041;34;20203;-65
2022/04/20 13:05:40;;;;;;;9.85;7.28;;;;;;;;;;4190830;34;20119;-63
2022/04/20 13:08:07;;;;;;;10.65;7.25;;;;;;;;;;4190589;34;20133;-63
2022/04/20 13:10:38;;;;;;;10.07;6.45;;;;;;;;;;4200888;34;20691;-61
2022/04/20 13:13:04;;;;;;;10.50;6.75;;;;;;;;;;4200873;34;20171;-62
2022/04/20 13:15:30;;;;;;;9.02;7.65;;;;;;;;;;4190923;34;20196;-63
2022/04/20 13:17:57;;;;;;;8.68;7.05;;;;;;;;;;4190953;34;20122;-61
2022/04/20 13:20:27;;;;;;;6.93;6.10;;;;;;;;;;4190817;34;20226;-62
2022/04/20 13:22:54;;;;;;;8.52;7.03;;;;;;;;;;4190214;34;20198;-61
2022/04/20 13:28:05;;;;;;;8.35;6.43;;;;;;;;;;4189663;34;20508;-62
2022/04/20 13:30:35;;;;;;;8.45;6.75;;;;;;;;;;4190308;34;20117;-60
2022/04/20 13:33:03;;;;;;;9.90;6.55;;;;;;;;;;4178403;34;20195;-62
2022/04/20 13:35:29;;;;;;;7.32;6.60;;;;;;;;;;4177877;34;20118;-62
2022/04/20 13:37:55;;;;;;;9.75;6.25;;;;;;;;;;4190798;34;20126;-63
2022/04/20 13:40:22;;;;;;;9.15;7.25;;;;;;;;;;4190986;34;20134;-62
2022/04/20 13:42:49;;;;;;;11.40;7.35;;;;;;;;;;4190591;34;20107;-63
2022/04/20 13:45:15;;;;;;;10.43;7.90;;;;;;;;;;4190914;34;20210;-63
2022/04/20 13:47:41;;;;;;;9.48;7.82;;;;;;;;;;4190525;34;20121;-63
2022/04/20 13:50:08;;;;;;;11.68;7.37;;;;;;;;;;4190726;34;20122;-63
2022/04/20 13:52:38;;;;;;;11.32;8.52;;;;;;;;;;4189130;34;20213;-62
2022/04/20 13:55:05;;;;;;;12.73;8.80;;;;;;;;;;4190779;34;20122;-61
2022/04/20 13:57:32;;;;;;;11.10;8.68;;;;;;;;;;4188696;34;20482;-61
2022/04/20 13:59:59;;;;;;;17.10;9.38;;;;;;;;;;4189379;34;20132;-60
2022/04/20 14:02:25;;;;;;;12.85;8.45;;;;;;;;;;4189566;34;20117;-61
2022/04/20 14:04:51;;;;;;;19.62;9.85;;;;;;;;;;4190452;34;20762;-61
2022/04/20 14:07:20;;;;;;;10.07;8.98;;;;;;;;;;4190456;34;20113;-61
2022/04/20 14:09:47;;;;;;;9.43;8.43;;;;;;;;;;4190600;34;20114;-60
2022/04/20 14:12:16;;;;;;;10.77;7.87;;;;;;;;;;4190586;34;20125;-60
2022/04/20 14:14:43;;;;;;;9.95;7.78;;;;;;;;;;4190235;34;20455;-59
2022/04/20 14:17:10;;;;;;;10.25;7.90;;;;;;;;;;4187400;34;20136;-59
2022/04/20 14:19:40;;;;;;;13.55;8.60;;;;;;;;;;4188425;34;20130;-61
2022/04/20 14:22:07;;;;;;;10.60;8.07;;;;;;;;;;4190253;34;20446;-60
2022/04/20 14:24:36;;;;;;;9.35;7.78;;;;;;;;;;4188758;34;20118;-59
2022/04/20 14:32:32;;;;;;;11.65;9.68;;;;;;;;;;4188815;34;20114;-59
2022/04/20 14:34:57;;;;;;;11.30;9.10;;;;;;;;;;4191283;34;20118;-60
2022/04/20 14:37:23;;;;;;;10.50;7.97;;;;;;;;;;4192421;34;20599;-59
2022/04/20 14:39:49;;;;;;;10.68;7.93;;;;;;;;;;4192374;34;20094;-60
2022/04/20 14:42:16;;;;;;;9.20;7.03;;;;;;;;;;4192510;34;20201;-60
2022/04/20 14:44:43;;;;;;;10.65;7.55;;;;;;;;;;4192323;34;20181;-60
2022/04/20 14:47:13;;;;;;;12.70;7.20;;;;;;;;;;4192181;34;20113;-61
2022/04/20 14:49:40;;;;;;;11.02;6.97;;;;;;;;;;4186425;34;20205;-59
2022/04/20 14:52:10;;;;;;;10.75;7.45;;;;;;;;;;4184932;34;20091;-62
2022/04/20 14:54:37;;;;;;;9.45;7.15;;;;;;;;;;4191722;34;20174;-66
2022/04/20 14:57:04;;;;;;;10.35;7.20;;;;;;;;;;4202358;34;20120;-62
2022/04/20 14:59:30;;;;;;;17.95;8.35;;;;;;;;;;4190574;34;20182;-69
2022/04/20 15:01:56;;;;;;;11.20;8.88;;;;;;;;;;4179482;34;20107;-63
2022/04/20 15:04:23;;;;;;;11.20;8.25;;;;;;;;;;4190381;34;20106;-63
2022/04/20 15:06:53;;;;;;;12.98;10.00;;;;;;;;;;4179267;34;20205;-65
2022/04/20 15:09:20;;;;;;;16.98;10.85;;;;;;;;;;4191938;34;20104;-63
2022/04/20 15:11:46;;;;;;;11.80;8.95;;;;;;;;;;4191796;34;20209;-63
2022/04/20 15:14:12;;;;;;;14.98;8.93;;;;;;;;;;4191898;34;20121;-61
2022/04/20 15:16:39;;;;;;;13.18;7.60;;;;;;;;;;4191879;34;20146;-62
2022/04/20 15:19:05;;;;;;;10.68;7.70;;;;;;;;;;4191874;34;20502;-61
2022/04/20 15:21:32;;;;;;;10.75;8.55;;;;;;;;;;4191239;34;20126;-61
2022/04/20 15:23:58;;;;;;;12.35;8.18;;;;;;;;;;4179030;34;20128;-62
2022/04/20 15:26:24;;;;;;;12.23;8.43;;;;;;;;;;4179351;34;20109;-60
2022/04/20 15:28:53;;;;;;;4.85;4.07;;;;;;;;;;4192106;34;20106;-60
2022/04/20 15:31:20;;;;;;;4.82;3.40;;;;;;;;;;4191777;34;20490;-60
2022/04/20 15:33:46;;;;;;;9.38;3.37;;;;;;;;;;4192218;34;20130;-60
2022/04/20 15:36:13;;;;;;;4.50;2.83;;;;;;;;;;4191953;34;20102;-60
2022/04/20 15:38:39;;;;;;;3.33;2.60;;;;;;;;;;4191957;34;20113;-60